Huvudsida
METAR-TAF:

METAR-TAF

Flygplatser :

Zanzibar, Tanzania

latitud: 06-13S, longitud: 039-13E, höjd: 15 m

Aktuellt väderrapport

Denna rapport gjordes för 2 timmar och 39 minuter sedan, klockan 15:00 UTC
Vind 10 kt från syd/sydost
Temperatur 28°C
Fuktighet 79%
Tryck 1013 hPa
Sikt 10 km eller mer
Få moln på en höjd av 1800 ft

METAR: HTZA 231500Z 16010KT 9999 FEW018 28/24 Q1013 NOSIG

Tid: 20:39 (17:39 UTC)

Väderprognos

Denna rapport gjordes för 6 timmar och 39 minuter sedan, klockan 11:00 UTC
Prognos gäller från 23 kl. 12 UTC till 24 kl. 12 UTC
Vind 10 kt från syd/sydost
Sikt 10 km eller mer
Spridda moln på en höjd av 1600 ft
Brutna moln på en höjd av 8000 ft
Blir
från 24 kl. 01 UTC till 24 kl. 03 UTC
Vind 10 kt från sydväst

TAF: HTZA 231100Z 2312/2412 16010KT 9999 SCT016 BKN080 BECMG 2401/2403 22010KT

Aktuella väderrapporter och prognoser från 4000 flygplatser (METAR- och TAF-rapporter).

De tillgängliga stationerna syns som gula och röda prickar på kartan.

För musen över prickarna för att se namnen på stationerna.

Klicka sedan för att få väderrapporter och prognoser.

För att ändra kartan: Klicka på de gröna knapparna med ett svart kors på för att zooma in; den gröna knappen med ett streck på för att zooma ut; eller på de gröna pilarna för angränsande kartor.


METAR-TAF: